sensor_id;sensor_type;location;lat;lon;timestamp;P1;durP1;ratioP1;P2;durP2;ratioP2
74926;SDS011;63488;48.092;-1.640;2024-02-23T00:01:29;5.68;;;1.83;;
74926;SDS011;63488;48.092;-1.640;2024-02-23T00:03:54;6.55;;;1.60;;
74926;SDS011;63488;48.092;-1.640;2024-02-23T00:06:20;7.07;;;1.55;;
74926;SDS011;63488;48.092;-1.640;2024-02-23T00:08:46;6.10;;;1.60;;
74926;SDS011;63488;48.092;-1.640;2024-02-23T00:11:11;6.13;;;1.40;;
74926;SDS011;63488;48.092;-1.640;2024-02-23T00:13:36;7.00;;;1.67;;
74926;SDS011;63488;48.092;-1.640;2024-02-23T00:16:02;6.10;;;1.20;;
74926;SDS011;63488;48.092;-1.640;2024-02-23T00:18:27;6.13;;;2.13;;
74926;SDS011;63488;48.092;-1.640;2024-02-23T00:20:53;7.03;;;1.33;;
74926;SDS011;63488;48.092;-1.640;2024-02-23T00:23:18;5.97;;;1.55;;
74926;SDS011;63488;48.092;-1.640;2024-02-23T00:25:44;6.05;;;1.50;;
74926;SDS011;63488;48.092;-1.640;2024-02-23T00:28:09;6.93;;;1.20;;
74926;SDS011;63488;48.092;-1.640;2024-02-23T00:30:35;7.30;;;1.50;;
74926;SDS011;63488;48.092;-1.640;2024-02-23T00:33:00;4.70;;;1.52;;
74926;SDS011;63488;48.092;-1.640;2024-02-23T00:35:26;5.13;;;1.10;;
74926;SDS011;63488;48.092;-1.640;2024-02-23T00:37:51;5.10;;;1.30;;
74926;SDS011;63488;48.092;-1.640;2024-02-23T00:40:17;4.60;;;1.17;;
74926;SDS011;63488;48.092;-1.640;2024-02-23T00:42:42;6.75;;;1.30;;
74926;SDS011;63488;48.092;-1.640;2024-02-23T00:45:07;6.90;;;1.08;;
74926;SDS011;63488;48.092;-1.640;2024-02-23T00:47:33;5.82;;;1.08;;
74926;SDS011;63488;48.092;-1.640;2024-02-23T00:50:00;7.15;;;1.15;;
74926;SDS011;63488;48.092;-1.640;2024-02-23T00:52:25;5.45;;;1.10;;
74926;SDS011;63488;48.092;-1.640;2024-02-23T00:54:51;4.63;;;1.10;;
74926;SDS011;63488;48.092;-1.640;2024-02-23T00:57:16;6.50;;;1.08;;
74926;SDS011;63488;48.092;-1.640;2024-02-23T00:59:44;5.15;;;1.13;;
74926;SDS011;63488;48.092;-1.640;2024-02-23T01:02:09;6.53;;;1.45;;
74926;SDS011;63488;48.092;-1.640;2024-02-23T01:04:34;6.97;;;1.20;;
74926;SDS011;63488;48.092;-1.640;2024-02-23T01:07:00;5.45;;;1.20;;
74926;SDS011;63488;48.092;-1.640;2024-02-23T01:09:25;5.18;;;0.90;;
74926;SDS011;63488;48.092;-1.640;2024-02-23T01:11:50;5.57;;;1.30;;
74926;SDS011;63488;48.092;-1.640;2024-02-23T01:14:16;6.35;;;1.10;;
74926;SDS011;63488;48.092;-1.640;2024-02-23T01:16:41;5.97;;;1.15;;
74926;SDS011;63488;48.092;-1.640;2024-02-23T01:19:06;7.18;;;1.20;;
74926;SDS011;63488;48.092;-1.640;2024-02-23T01:21:32;7.50;;;1.17;;
74926;SDS011;63488;48.092;-1.640;2024-02-23T01:23:58;6.38;;;1.10;;
74926;SDS011;63488;48.092;-1.640;2024-02-23T01:26:27;5.97;;;1.15;;
74926;SDS011;63488;48.092;-1.640;2024-02-23T01:28:53;7.82;;;1.05;;
74926;SDS011;63488;48.092;-1.640;2024-02-23T01:31:18;6.43;;;1.13;;
74926;SDS011;63488;48.092;-1.640;2024-02-23T01:33:44;7.03;;;0.93;;
74926;SDS011;63488;48.092;-1.640;2024-02-23T01:36:09;5.78;;;1.20;;
74926;SDS011;63488;48.092;-1.640;2024-02-23T01:38:35;5.50;;;1.42;;
74926;SDS011;63488;48.092;-1.640;2024-02-23T01:41:00;5.75;;;0.82;;
74926;SDS011;63488;48.092;-1.640;2024-02-23T01:43:26;5.82;;;1.35;;
74926;SDS011;63488;48.092;-1.640;2024-02-23T01:45:51;5.72;;;0.90;;
74926;SDS011;63488;48.092;-1.640;2024-02-23T01:48:17;5.35;;;0.85;;
74926;SDS011;63488;48.092;-1.640;2024-02-23T01:50:42;4.70;;;0.98;;
74926;SDS011;63488;48.092;-1.640;2024-02-23T01:53:08;3.63;;;1.00;;
74926;SDS011;63488;48.092;-1.640;2024-02-23T01:55:34;3.40;;;0.90;;
74926;SDS011;63488;48.092;-1.640;2024-02-23T01:58:00;5.38;;;1.10;;
74926;SDS011;63488;48.092;-1.640;2024-02-23T02:00:25;4.00;;;1.02;;
74926;SDS011;63488;48.092;-1.640;2024-02-23T02:02:51;5.68;;;0.90;;
74926;SDS011;63488;48.092;-1.640;2024-02-23T02:05:17;5.15;;;1.00;;
74926;SDS011;63488;48.092;-1.640;2024-02-23T02:07:42;5.45;;;1.00;;
74926;SDS011;63488;48.092;-1.640;2024-02-23T02:10:08;5.95;;;0.90;;
74926;SDS011;63488;48.092;-1.640;2024-02-23T02:12:34;4.22;;;0.85;;
74926;SDS011;63488;48.092;-1.640;2024-02-23T02:14:59;3.50;;;0.73;;
74926;SDS011;63488;48.092;-1.640;2024-02-23T02:17:26;3.95;;;0.80;;
74926;SDS011;63488;48.092;-1.640;2024-02-23T02:19:52;3.65;;;0.60;;
74926;SDS011;63488;48.092;-1.640;2024-02-23T02:22:17;3.40;;;0.77;;
74926;SDS011;63488;48.092;-1.640;2024-02-23T02:24:43;3.13;;;0.82;;
74926;SDS011;63488;48.092;-1.640;2024-02-23T02:27:11;6.22;;;0.75;;
74926;SDS011;63488;48.092;-1.640;2024-02-23T02:29:36;4.45;;;1.00;;
74926;SDS011;63488;48.092;-1.640;2024-02-23T02:32:02;3.45;;;0.90;;
74926;SDS011;63488;48.092;-1.640;2024-02-23T02:34:27;4.28;;;0.82;;
74926;SDS011;63488;48.092;-1.640;2024-02-23T02:36:54;3.22;;;0.68;;
74926;SDS011;63488;48.092;-1.640;2024-02-23T02:39:19;3.70;;;0.80;;
74926;SDS011;63488;48.092;-1.640;2024-02-23T02:41:45;3.10;;;0.80;;
74926;SDS011;63488;48.092;-1.640;2024-02-23T02:44:10;4.13;;;0.88;;
74926;SDS011;63488;48.092;-1.640;2024-02-23T02:46:35;4.85;;;1.20;;
74926;SDS011;63488;48.092;-1.640;2024-02-23T02:49:02;4.90;;;1.08;;
74926;SDS011;63488;48.092;-1.640;2024-02-23T02:51:28;4.13;;;0.77;;
74926;SDS011;63488;48.092;-1.640;2024-02-23T02:53:53;6.70;;;0.90;;
74926;SDS011;63488;48.092;-1.640;2024-02-23T02:56:18;5.00;;;0.98;;
74926;SDS011;63488;48.092;-1.640;2024-02-23T02:58:43;3.17;;;1.05;;
74926;SDS011;63488;48.092;-1.640;2024-02-23T03:01:09;7.45;;;1.10;;
74926;SDS011;63488;48.092;-1.640;2024-02-23T03:03:34;5.70;;;0.80;;
74926;SDS011;63488;48.092;-1.640;2024-02-23T03:05:59;6.53;;;1.15;;
74926;SDS011;63488;48.092;-1.640;2024-02-23T03:08:25;4.40;;;1.00;;
74926;SDS011;63488;48.092;-1.640;2024-02-23T03:10:51;7.82;;;1.02;;
74926;SDS011;63488;48.092;-1.640;2024-02-23T03:13:16;5.45;;;1.05;;
74926;SDS011;63488;48.092;-1.640;2024-02-23T03:15:41;4.45;;;0.98;;
74926;SDS011;63488;48.092;-1.640;2024-02-23T03:18:07;4.82;;;1.10;;
74926;SDS011;63488;48.092;-1.640;2024-02-23T03:20:34;8.13;;;1.13;;
74926;SDS011;63488;48.092;-1.640;2024-02-23T03:22:59;4.28;;;0.77;;
74926;SDS011;63488;48.092;-1.640;2024-02-23T03:25:26;5.03;;;0.90;;
74926;SDS011;63488;48.092;-1.640;2024-02-23T03:27:51;5.85;;;1.45;;
74926;SDS011;63488;48.092;-1.640;2024-02-23T03:30:16;2.75;;;0.73;;
74926;SDS011;63488;48.092;-1.640;2024-02-23T03:32:42;4.38;;;0.80;;
74926;SDS011;63488;48.092;-1.640;2024-02-23T03:35:07;6.00;;;1.00;;
74926;SDS011;63488;48.092;-1.640;2024-02-23T03:37:36;4.43;;;0.88;;
74926;SDS011;63488;48.092;-1.640;2024-02-23T03:40:01;5.75;;;0.88;;
74926;SDS011;63488;48.092;-1.640;2024-02-23T03:42:26;5.43;;;0.80;;
74926;SDS011;63488;48.092;-1.640;2024-02-23T03:44:52;4.28;;;0.70;;
74926;SDS011;63488;48.092;-1.640;2024-02-23T03:47:17;5.00;;;0.90;;
74926;SDS011;63488;48.092;-1.640;2024-02-23T03:49:43;5.43;;;0.85;;
74926;SDS011;63488;48.092;-1.640;2024-02-23T03:52:08;4.07;;;0.82;;
74926;SDS011;63488;48.092;-1.640;2024-02-23T03:54:33;3.55;;;0.80;;
74926;SDS011;63488;48.092;-1.640;2024-02-23T03:56:59;5.05;;;0.85;;
74926;SDS011;63488;48.092;-1.640;2024-02-23T03:59:24;2.58;;;0.47;;
74926;SDS011;63488;48.092;-1.640;2024-02-23T04:01:49;3.60;;;0.77;;
74926;SDS011;63488;48.092;-1.640;2024-02-23T04:04:15;3.72;;;0.90;;
74926;SDS011;63488;48.092;-1.640;2024-02-23T04:06:40;3.35;;;0.75;;
74926;SDS011;63488;48.092;-1.640;2024-02-23T04:09:05;2.67;;;0.40;;
74926;SDS011;63488;48.092;-1.640;2024-02-23T04:11:31;2.67;;;0.40;;
74926;SDS011;63488;48.092;-1.640;2024-02-23T04:13:56;2.92;;;0.40;;
74926;SDS011;63488;48.092;-1.640;2024-02-23T04:16:22;2.80;;;0.52;;
74926;SDS011;63488;48.092;-1.640;2024-02-23T04:18:48;2.03;;;0.70;;
74926;SDS011;63488;48.092;-1.640;2024-02-23T04:21:13;4.38;;;0.70;;
74926;SDS011;63488;48.092;-1.640;2024-02-23T04:23:40;1.80;;;0.55;;
74926;SDS011;63488;48.092;-1.640;2024-02-23T04:26:05;4.80;;;0.68;;
74926;SDS011;63488;48.092;-1.640;2024-02-23T04:28:31;4.03;;;0.85;;
74926;SDS011;63488;48.092;-1.640;2024-02-23T04:30:58;4.55;;;0.50;;
74926;SDS011;63488;48.092;-1.640;2024-02-23T04:33:24;2.97;;;0.47;;
74926;SDS011;63488;48.092;-1.640;2024-02-23T04:35:49;3.35;;;0.60;;
74926;SDS011;63488;48.092;-1.640;2024-02-23T04:38:15;2.70;;;0.60;;
74926;SDS011;63488;48.092;-1.640;2024-02-23T04:40:40;5.55;;;0.85;;
74926;SDS011;63488;48.092;-1.640;2024-02-23T04:43:05;4.60;;;0.93;;
74926;SDS011;63488;48.092;-1.640;2024-02-23T04:45:31;3.90;;;0.68;;
74926;SDS011;63488;48.092;-1.640;2024-02-23T04:47:56;4.88;;;1.00;;
74926;SDS011;63488;48.092;-1.640;2024-02-23T04:50:21;3.10;;;0.50;;
74926;SDS011;63488;48.092;-1.640;2024-02-23T04:52:48;4.13;;;0.70;;
74926;SDS011;63488;48.092;-1.640;2024-02-23T04:55:14;6.18;;;0.90;;
74926;SDS011;63488;48.092;-1.640;2024-02-23T04:57:39;2.97;;;0.63;;
74926;SDS011;63488;48.092;-1.640;2024-02-23T05:00:05;3.05;;;0.60;;
74926;SDS011;63488;48.092;-1.640;2024-02-23T05:02:32;3.22;;;0.65;;
74926;SDS011;63488;48.092;-1.640;2024-02-23T05:05:00;2.67;;;0.63;;
74926;SDS011;63488;48.092;-1.640;2024-02-23T05:07:26;5.07;;;0.80;;
74926;SDS011;63488;48.092;-1.640;2024-02-23T05:09:51;4.20;;;0.90;;
74926;SDS011;63488;48.092;-1.640;2024-02-23T05:12:16;4.30;;;0.50;;
74926;SDS011;63488;48.092;-1.640;2024-02-23T05:14:42;2.60;;;0.70;;
74926;SDS011;63488;48.092;-1.640;2024-02-23T05:17:07;2.47;;;0.50;;
74926;SDS011;63488;48.092;-1.640;2024-02-23T05:19:32;3.85;;;1.00;;
74926;SDS011;63488;48.092;-1.640;2024-02-23T05:21:58;4.60;;;0.77;;
74926;SDS011;63488;48.092;-1.640;2024-02-23T05:24:23;4.07;;;0.55;;
74926;SDS011;63488;48.092;-1.640;2024-02-23T05:26:48;3.90;;;0.88;;
74926;SDS011;63488;48.092;-1.640;2024-02-23T05:29:13;2.85;;;0.55;;
74926;SDS011;63488;48.092;-1.640;2024-02-23T05:31:46;2.15;;;0.60;;
74926;SDS011;63488;48.092;-1.640;2024-02-23T05:34:12;5.07;;;0.65;;
74926;SDS011;63488;48.092;-1.640;2024-02-23T05:36:37;3.42;;;0.98;;
74926;SDS011;63488;48.092;-1.640;2024-02-23T05:39:03;2.45;;;0.70;;
74926;SDS011;63488;48.092;-1.640;2024-02-23T05:41:28;3.70;;;0.68;;
74926;SDS011;63488;48.092;-1.640;2024-02-23T05:43:53;4.43;;;0.95;;
74926;SDS011;63488;48.092;-1.640;2024-02-23T05:46:19;5.88;;;0.73;;
74926;SDS011;63488;48.092;-1.640;2024-02-23T05:48:46;3.20;;;0.90;;
74926;SDS011;63488;48.092;-1.640;2024-02-23T05:51:11;3.53;;;0.80;;
74926;SDS011;63488;48.092;-1.640;2024-02-23T05:53:36;4.68;;;0.80;;
74926;SDS011;63488;48.092;-1.640;2024-02-23T05:56:02;3.63;;;0.50;;
74926;SDS011;63488;48.092;-1.640;2024-02-23T05:58:28;4.57;;;0.77;;
74926;SDS011;63488;48.092;-1.640;2024-02-23T06:00:53;4.63;;;1.02;;
74926;SDS011;63488;48.092;-1.640;2024-02-23T06:03:19;4.43;;;0.90;;
74926;SDS011;63488;48.092;-1.640;2024-02-23T06:05:44;3.75;;;0.77;;
74926;SDS011;63488;48.092;-1.640;2024-02-23T06:08:10;3.95;;;0.82;;
74926;SDS011;63488;48.092;-1.640;2024-02-23T06:10:35;2.65;;;0.50;;
74926;SDS011;63488;48.092;-1.640;2024-02-23T06:13:01;3.50;;;0.95;;
74926;SDS011;63488;48.092;-1.640;2024-02-23T06:15:27;2.75;;;0.80;;
74926;SDS011;63488;48.092;-1.640;2024-02-23T06:17:53;4.28;;;0.90;;
74926;SDS011;63488;48.092;-1.640;2024-02-23T06:20:18;3.60;;;0.98;;
74926;SDS011;63488;48.092;-1.640;2024-02-23T06:22:44;2.88;;;0.80;;
74926;SDS011;63488;48.092;-1.640;2024-02-23T06:25:10;3.20;;;0.68;;
74926;SDS011;63488;48.092;-1.640;2024-02-23T06:27:36;2.95;;;0.68;;
74926;SDS011;63488;48.092;-1.640;2024-02-23T06:30:02;4.57;;;0.85;;
74926;SDS011;63488;48.092;-1.640;2024-02-23T06:32:27;5.50;;;0.57;;
74926;SDS011;63488;48.092;-1.640;2024-02-23T06:34:55;3.97;;;0.73;;
74926;SDS011;63488;48.092;-1.640;2024-02-23T06:37:22;3.53;;;0.40;;
74926;SDS011;63488;48.092;-1.640;2024-02-23T06:39:48;3.22;;;0.55;;
74926;SDS011;63488;48.092;-1.640;2024-02-23T06:42:20;2.92;;;0.63;;
74926;SDS011;63488;48.092;-1.640;2024-02-23T06:44:47;1.40;;;0.47;;
74926;SDS011;63488;48.092;-1.640;2024-02-23T06:47:14;1.10;;;0.40;;
74926;SDS011;63488;48.092;-1.640;2024-02-23T06:49:43;0.95;;;0.38;;
74926;SDS011;63488;48.092;-1.640;2024-02-23T06:52:09;1.58;;;0.50;;
74926;SDS011;63488;48.092;-1.640;2024-02-23T06:54:34;1.60;;;0.55;;
74926;SDS011;63488;48.092;-1.640;2024-02-23T06:57:00;2.58;;;0.40;;
74926;SDS011;63488;48.092;-1.640;2024-02-23T06:59:25;2.65;;;0.50;;
74926;SDS011;63488;48.092;-1.640;2024-02-23T07:01:51;1.25;;;0.55;;
74926;SDS011;63488;48.092;-1.640;2024-02-23T07:04:16;1.38;;;0.38;;
74926;SDS011;63488;48.092;-1.640;2024-02-23T07:06:42;0.80;;;0.20;;
74926;SDS011;63488;48.092;-1.640;2024-02-23T07:09:08;1.65;;;0.50;;
74926;SDS011;63488;48.092;-1.640;2024-02-23T07:11:33;2.28;;;0.50;;
74926;SDS011;63488;48.092;-1.640;2024-02-23T07:13:58;3.92;;;0.50;;
74926;SDS011;63488;48.092;-1.640;2024-02-23T07:16:24;3.55;;;0.93;;
74926;SDS011;63488;48.092;-1.640;2024-02-23T07:18:50;1.50;;;0.65;;
74926;SDS011;63488;48.092;-1.640;2024-02-23T07:21:18;2.70;;;0.40;;
74926;SDS011;63488;48.092;-1.640;2024-02-23T07:23:44;1.10;;;0.40;;
74926;SDS011;63488;48.092;-1.640;2024-02-23T07:26:09;1.98;;;0.30;;
74926;SDS011;63488;48.092;-1.640;2024-02-23T07:28:34;1.48;;;0.35;;
74926;SDS011;63488;48.092;-1.640;2024-02-23T07:31:00;1.35;;;0.43;;
74926;SDS011;63488;48.092;-1.640;2024-02-23T07:33:25;1.33;;;0.40;;
74926;SDS011;63488;48.092;-1.640;2024-02-23T07:35:50;2.15;;;0.43;;
74926;SDS011;63488;48.092;-1.640;2024-02-23T07:38:16;1.05;;;0.32;;
74926;SDS011;63488;48.092;-1.640;2024-02-23T07:40:43;1.95;;;0.50;;
74926;SDS011;63488;48.092;-1.640;2024-02-23T07:43:08;1.58;;;0.30;;
74926;SDS011;63488;48.092;-1.640;2024-02-23T07:45:36;1.13;;;0.38;;
74926;SDS011;63488;48.092;-1.640;2024-02-23T07:48:01;0.98;;;0.40;;
74926;SDS011;63488;48.092;-1.640;2024-02-23T07:50:27;2.55;;;0.30;;
74926;SDS011;63488;48.092;-1.640;2024-02-23T07:52:52;1.88;;;0.30;;
74926;SDS011;63488;48.092;-1.640;2024-02-23T07:55:18;3.10;;;0.47;;
74926;SDS011;63488;48.092;-1.640;2024-02-23T07:57:43;3.42;;;0.50;;
74926;SDS011;63488;48.092;-1.640;2024-02-23T08:00:08;4.68;;;0.75;;
74926;SDS011;63488;48.092;-1.640;2024-02-23T08:02:35;1.35;;;0.40;;
74926;SDS011;63488;48.092;-1.640;2024-02-23T08:05:00;2.60;;;0.63;;
74926;SDS011;63488;48.092;-1.640;2024-02-23T08:07:25;1.83;;;0.45;;
74926;SDS011;63488;48.092;-1.640;2024-02-23T08:09:53;1.92;;;0.50;;
74926;SDS011;63488;48.092;-1.640;2024-02-23T08:12:18;1.58;;;0.40;;
74926;SDS011;63488;48.092;-1.640;2024-02-23T08:14:44;3.47;;;0.65;;
74926;SDS011;63488;48.092;-1.640;2024-02-23T08:17:10;2.95;;;0.63;;
74926;SDS011;63488;48.092;-1.640;2024-02-23T08:19:36;1.55;;;0.43;;
74926;SDS011;63488;48.092;-1.640;2024-02-23T08:22:01;1.30;;;0.47;;
74926;SDS011;63488;48.092;-1.640;2024-02-23T08:24:26;2.15;;;0.57;;
74926;SDS011;63488;48.092;-1.640;2024-02-23T08:26:52;2.03;;;0.68;;
74926;SDS011;63488;48.092;-1.640;2024-02-23T08:29:17;2.40;;;0.40;;
74926;SDS011;63488;48.092;-1.640;2024-02-23T08:31:43;2.60;;;0.82;;
74926;SDS011;63488;48.092;-1.640;2024-02-23T08:34:08;3.13;;;0.68;;
74926;SDS011;63488;48.092;-1.640;2024-02-23T08:36:33;5.82;;;1.42;;
74926;SDS011;63488;48.092;-1.640;2024-02-23T08:38:59;2.78;;;0.60;;
74926;SDS011;63488;48.092;-1.640;2024-02-23T08:41:24;2.20;;;0.50;;
74926;SDS011;63488;48.092;-1.640;2024-02-23T08:43:49;2.70;;;1.08;;
74926;SDS011;63488;48.092;-1.640;2024-02-23T08:46:15;5.30;;;0.70;;
74926;SDS011;63488;48.092;-1.640;2024-02-23T08:48:40;2.90;;;0.57;;
74926;SDS011;63488;48.092;-1.640;2024-02-23T08:51:05;3.38;;;0.60;;
74926;SDS011;63488;48.092;-1.640;2024-02-23T08:53:31;1.65;;;0.50;;
74926;SDS011;63488;48.092;-1.640;2024-02-23T08:55:56;3.83;;;0.77;;
74926;SDS011;63488;48.092;-1.640;2024-02-23T08:58:22;2.45;;;0.80;;
74926;SDS011;63488;48.092;-1.640;2024-02-23T09:00:47;2.45;;;0.60;;
74926;SDS011;63488;48.092;-1.640;2024-02-23T09:03:13;3.10;;;0.80;;
74926;SDS011;63488;48.092;-1.640;2024-02-23T09:05:39;4.10;;;0.70;;
74926;SDS011;63488;48.092;-1.640;2024-02-23T09:08:06;2.33;;;0.68;;
74926;SDS011;63488;48.092;-1.640;2024-02-23T09:10:31;3.50;;;0.73;;
74926;SDS011;63488;48.092;-1.640;2024-02-23T09:12:56;3.05;;;0.47;;
74926;SDS011;63488;48.092;-1.640;2024-02-23T09:15:22;1.60;;;0.60;;
74926;SDS011;63488;48.092;-1.640;2024-02-23T09:17:47;3.33;;;0.90;;
74926;SDS011;63488;48.092;-1.640;2024-02-23T09:20:13;4.50;;;1.00;;
74926;SDS011;63488;48.092;-1.640;2024-02-23T09:22:38;2.95;;;1.20;;
74926;SDS011;63488;48.092;-1.640;2024-02-23T09:25:05;3.78;;;1.52;;
74926;SDS011;63488;48.092;-1.640;2024-02-23T09:27:31;5.55;;;1.83;;
74926;SDS011;63488;48.092;-1.640;2024-02-23T09:29:56;7.43;;;2.75;;
74926;SDS011;63488;48.092;-1.640;2024-02-23T09:32:22;5.55;;;2.22;;
74926;SDS011;63488;48.092;-1.640;2024-02-23T09:34:48;4.80;;;1.67;;
74926;SDS011;63488;48.092;-1.640;2024-02-23T09:37:13;5.95;;;1.52;;
74926;SDS011;63488;48.092;-1.640;2024-02-23T09:39:39;4.03;;;1.42;;
74926;SDS011;63488;48.092;-1.640;2024-02-23T09:42:05;5.45;;;1.38;;
74926;SDS011;63488;48.092;-1.640;2024-02-23T09:44:33;3.63;;;1.20;;
74926;SDS011;63488;48.092;-1.640;2024-02-23T09:47:00;4.75;;;1.02;;
74926;SDS011;63488;48.092;-1.640;2024-02-23T09:49:26;3.78;;;0.70;;
74926;SDS011;63488;48.092;-1.640;2024-02-23T09:51:51;4.40;;;0.80;;
74926;SDS011;63488;48.092;-1.640;2024-02-23T09:54:17;3.63;;;0.60;;
74926;SDS011;63488;48.092;-1.640;2024-02-23T09:56:43;1.67;;;0.57;;
74926;SDS011;63488;48.092;-1.640;2024-02-23T09:59:08;2.50;;;0.40;;
74926;SDS011;63488;48.092;-1.640;2024-02-23T10:01:34;3.60;;;0.70;;
74926;SDS011;63488;48.092;-1.640;2024-02-23T10:04:01;3.15;;;0.70;;
74926;SDS011;63488;48.092;-1.640;2024-02-23T10:06:29;3.33;;;0.70;;
74926;SDS011;63488;48.092;-1.640;2024-02-23T10:08:55;1.90;;;0.50;;
74926;SDS011;63488;48.092;-1.640;2024-02-23T10:11:20;2.20;;;0.65;;
74926;SDS011;63488;48.092;-1.640;2024-02-23T10:13:49;1.92;;;0.57;;
74926;SDS011;63488;48.092;-1.640;2024-02-23T10:16:15;2.50;;;0.70;;
74926;SDS011;63488;48.092;-1.640;2024-02-23T10:18:41;3.75;;;0.80;;
74926;SDS011;63488;48.092;-1.640;2024-02-23T10:21:06;3.03;;;0.55;;
74926;SDS011;63488;48.092;-1.640;2024-02-23T10:23:32;2.60;;;0.32;;
74926;SDS011;63488;48.092;-1.640;2024-02-23T10:25:57;3.83;;;0.57;;
74926;SDS011;63488;48.092;-1.640;2024-02-23T10:28:23;2.08;;;0.73;;
74926;SDS011;63488;48.092;-1.640;2024-02-23T10:30:48;2.50;;;0.60;;
74926;SDS011;63488;48.092;-1.640;2024-02-23T10:33:13;0.65;;;0.30;;
74926;SDS011;63488;48.092;-1.640;2024-02-23T10:35:39;2.58;;;0.60;;
74926;SDS011;63488;48.092;-1.640;2024-02-23T10:38:05;3.50;;;0.60;;
74926;SDS011;63488;48.092;-1.640;2024-02-23T10:40:34;0.90;;;0.30;;
74926;SDS011;63488;48.092;-1.640;2024-02-23T10:43:05;2.88;;;0.43;;
74926;SDS011;63488;48.092;-1.640;2024-02-23T10:45:35;3.17;;;0.45;;
74926;SDS011;63488;48.092;-1.640;2024-02-23T10:48:01;2.45;;;0.45;;
74926;SDS011;63488;48.092;-1.640;2024-02-23T10:50:27;0.60;;;0.30;;
74926;SDS011;63488;48.092;-1.640;2024-02-23T10:52:52;3.28;;;0.32;;
74926;SDS011;63488;48.092;-1.640;2024-02-23T10:55:18;2.05;;;0.57;;
74926;SDS011;63488;48.092;-1.640;2024-02-23T10:57:45;2.03;;;0.40;;
74926;SDS011;63488;48.092;-1.640;2024-02-23T11:00:13;1.10;;;0.40;;
74926;SDS011;63488;48.092;-1.640;2024-02-23T11:02:43;1.90;;;0.50;;
74926;SDS011;63488;48.092;-1.640;2024-02-23T11:05:10;1.50;;;0.40;;
74926;SDS011;63488;48.092;-1.640;2024-02-23T11:07:40;2.90;;;0.70;;
74926;SDS011;63488;48.092;-1.640;2024-02-23T11:10:06;0.85;;;0.38;;
74926;SDS011;63488;48.092;-1.640;2024-02-23T11:12:33;2.47;;;0.40;;
74926;SDS011;63488;48.092;-1.640;2024-02-23T11:14:59;3.20;;;1.83;;
74926;SDS011;63488;48.092;-1.640;2024-02-23T11:17:31;2.67;;;0.70;;
74926;SDS011;63488;48.092;-1.640;2024-02-23T11:19:57;2.45;;;0.65;;
74926;SDS011;63488;48.092;-1.640;2024-02-23T11:22:23;1.92;;;0.60;;
74926;SDS011;63488;48.092;-1.640;2024-02-23T11:24:49;1.52;;;0.40;;
74926;SDS011;63488;48.092;-1.640;2024-02-23T11:27:15;2.92;;;0.77;;
74926;SDS011;63488;48.092;-1.640;2024-02-23T11:29:47;2.47;;;0.70;;
74926;SDS011;63488;48.092;-1.640;2024-02-23T11:32:16;3.10;;;0.70;;
74926;SDS011;63488;48.092;-1.640;2024-02-23T11:34:53;2.38;;;0.57;;
74926;SDS011;63488;48.092;-1.640;2024-02-23T11:37:18;1.75;;;0.50;;
74926;SDS011;63488;48.092;-1.640;2024-02-23T11:39:44;2.47;;;0.45;;
74926;SDS011;63488;48.092;-1.640;2024-02-23T11:42:10;4.38;;;0.60;;
74926;SDS011;63488;48.092;-1.640;2024-02-23T11:44:35;2.38;;;0.73;;
74926;SDS011;63488;48.092;-1.640;2024-02-23T11:47:01;2.35;;;0.70;;
74926;SDS011;63488;48.092;-1.640;2024-02-23T11:49:27;2.58;;;0.60;;
74926;SDS011;63488;48.092;-1.640;2024-02-23T11:51:53;1.15;;;0.45;;
74926;SDS011;63488;48.092;-1.640;2024-02-23T11:54:18;2.63;;;0.70;;
74926;SDS011;63488;48.092;-1.640;2024-02-23T11:56:44;1.48;;;0.50;;
74926;SDS011;63488;48.092;-1.640;2024-02-23T11:59:09;2.22;;;0.50;;
74926;SDS011;63488;48.092;-1.640;2024-02-23T12:01:35;4.97;;;0.90;;
74926;SDS011;63488;48.092;-1.640;2024-02-23T12:04:00;6.32;;;0.80;;
74926;SDS011;63488;48.092;-1.640;2024-02-23T12:06:26;3.47;;;0.80;;
74926;SDS011;63488;48.092;-1.640;2024-02-23T12:08:55;3.00;;;0.70;;
74926;SDS011;63488;48.092;-1.640;2024-02-23T12:11:20;2.25;;;0.65;;
74926;SDS011;63488;48.092;-1.640;2024-02-23T12:13:45;4.68;;;0.80;;
74926;SDS011;63488;48.092;-1.640;2024-02-23T12:16:11;2.45;;;0.80;;
74926;SDS011;63488;48.092;-1.640;2024-02-23T12:18:37;1.88;;;0.63;;
74926;SDS011;63488;48.092;-1.640;2024-02-23T12:21:06;2.67;;;0.85;;
74926;SDS011;63488;48.092;-1.640;2024-02-23T12:23:39;3.20;;;0.60;;
74926;SDS011;63488;48.092;-1.640;2024-02-23T12:26:04;4.25;;;0.90;;
74926;SDS011;63488;48.092;-1.640;2024-02-23T12:28:29;2.45;;;0.70;;
74926;SDS011;63488;48.092;-1.640;2024-02-23T12:31:01;4.43;;;1.05;;
74926;SDS011;63488;48.092;-1.640;2024-02-23T12:33:27;2.65;;;0.70;;
74926;SDS011;63488;48.092;-1.640;2024-02-23T12:35:53;2.28;;;0.65;;
74926;SDS011;63488;48.092;-1.640;2024-02-23T12:38:19;2.05;;;0.75;;
74926;SDS011;63488;48.092;-1.640;2024-02-23T12:40:44;4.05;;;0.60;;
74926;SDS011;63488;48.092;-1.640;2024-02-23T12:43:09;4.38;;;0.73;;
74926;SDS011;63488;48.092;-1.640;2024-02-23T12:45:35;3.85;;;0.95;;
74926;SDS011;63488;48.092;-1.640;2024-02-23T12:48:00;3.55;;;0.70;;
74926;SDS011;63488;48.092;-1.640;2024-02-23T12:50:25;4.10;;;0.80;;
74926;SDS011;63488;48.092;-1.640;2024-02-23T12:52:50;3.20;;;0.80;;
74926;SDS011;63488;48.092;-1.640;2024-02-23T12:55:17;5.00;;;1.00;;
74926;SDS011;63488;48.092;-1.640;2024-02-23T12:57:42;2.22;;;0.68;;
74926;SDS011;63488;48.092;-1.640;2024-02-23T13:00:08;1.85;;;0.70;;
74926;SDS011;63488;48.092;-1.640;2024-02-23T13:02:33;4.15;;;0.80;;
74926;SDS011;63488;48.092;-1.640;2024-02-23T13:04:59;1.98;;;0.35;;
74926;SDS011;63488;48.092;-1.640;2024-02-23T13:07:24;1.90;;;0.57;;
74926;SDS011;63488;48.092;-1.640;2024-02-23T13:09:50;3.33;;;0.85;;
74926;SDS011;63488;48.092;-1.640;2024-02-23T13:12:16;2.50;;;0.65;;
74926;SDS011;63488;48.092;-1.640;2024-02-23T13:14:41;2.50;;;0.70;;
74926;SDS011;63488;48.092;-1.640;2024-02-23T13:17:07;2.85;;;0.63;;
74926;SDS011;63488;48.092;-1.640;2024-02-23T13:19:32;2.80;;;0.75;;
74926;SDS011;63488;48.092;-1.640;2024-02-23T13:21:57;2.40;;;0.88;;
74926;SDS011;63488;48.092;-1.640;2024-02-23T13:24:25;2.50;;;0.55;;
74926;SDS011;63488;48.092;-1.640;2024-02-23T13:26:50;3.58;;;0.50;;
74926;SDS011;63488;48.092;-1.640;2024-02-23T13:29:16;3.05;;;0.57;;
74926;SDS011;63488;48.092;-1.640;2024-02-23T13:31:41;2.80;;;0.50;;
74926;SDS011;63488;48.092;-1.640;2024-02-23T13:34:07;3.13;;;0.70;;
74926;SDS011;63488;48.092;-1.640;2024-02-23T13:36:32;3.40;;;0.70;;
74926;SDS011;63488;48.092;-1.640;2024-02-23T13:38:57;3.17;;;0.90;;
74926;SDS011;63488;48.092;-1.640;2024-02-23T13:41:23;3.58;;;0.70;;
74926;SDS011;63488;48.092;-1.640;2024-02-23T13:43:48;2.95;;;0.88;;
74926;SDS011;63488;48.092;-1.640;2024-02-23T13:46:13;4.38;;;1.20;;
74926;SDS011;63488;48.092;-1.640;2024-02-23T13:48:38;2.55;;;0.70;;
74926;SDS011;63488;48.092;-1.640;2024-02-23T13:51:04;2.95;;;0.85;;
74926;SDS011;63488;48.092;-1.640;2024-02-23T13:53:30;5.28;;;0.93;;
74926;SDS011;63488;48.092;-1.640;2024-02-23T13:55:56;3.95;;;0.90;;
74926;SDS011;63488;48.092;-1.640;2024-02-23T13:58:22;3.47;;;0.80;;
74926;SDS011;63488;48.092;-1.640;2024-02-23T14:00:47;3.28;;;0.95;;
74926;SDS011;63488;48.092;-1.640;2024-02-23T14:03:18;4.85;;;1.08;;
74926;SDS011;63488;48.092;-1.640;2024-02-23T14:05:43;2.35;;;0.65;;
74926;SDS011;63488;48.092;-1.640;2024-02-23T14:08:10;6.93;;;1.55;;
74926;SDS011;63488;48.092;-1.640;2024-02-23T14:10:35;6.47;;;1.17;;
74926;SDS011;63488;48.092;-1.640;2024-02-23T14:13:01;5.47;;;1.20;;
74926;SDS011;63488;48.092;-1.640;2024-02-23T14:15:27;5.07;;;1.10;;
74926;SDS011;63488;48.092;-1.640;2024-02-23T14:17:52;4.57;;;1.00;;
74926;SDS011;63488;48.092;-1.640;2024-02-23T14:20:18;2.65;;;0.70;;
74926;SDS011;63488;48.092;-1.640;2024-02-23T14:22:43;4.88;;;1.00;;
74926;SDS011;63488;48.092;-1.640;2024-02-23T14:25:08;4.20;;;0.85;;